Time;durP1;ratioP1;P1;durP2;ratioP2;P2;SDS_P1;SDS_P2;PMS_P1;PMS_P2;Temp;Humidity;BMP_temperature;BMP_pressure;BME280_temperature;BME280_humidity;BME280_pressure;Samples;Min_cycle;Max_cycle;Signal;HPM_P1;HPM_P2
2022/09/18 00:02:20;;;;;;;1.80;0.98;;;;;;;;;;5052764;28;20033;-80
2022/09/18 00:04:46;;;;;;;3.60;1.23;;;;;;;;;;5037179;28;20540;-79
2022/09/18 00:07:11;;;;;;;4.07;1.10;;;;;;;;;;5053244;28;20032;-78
2022/09/18 00:09:37;;;;;;;4.55;1.30;;;;;;;;;;5053232;28;20025;-78
2022/09/18 00:12:02;;;;;;;4.32;1.23;;;;;;;;;;5051798;28;20389;-78
2022/09/18 00:14:28;;;;;;;5.10;1.48;;;;;;;;;;5034982;28;20445;-80
2022/09/18 00:16:53;;;;;;;6.57;1.10;;;;;;;;;;5018630;28;20031;-78
2022/09/18 00:19:19;;;;;;;1.75;1.15;;;;;;;;;;5051645;28;20063;-78
2022/09/18 00:21:47;;;;;;;3.70;1.85;;;;;;;;;;5034840;28;20029;-78
2022/09/18 00:24:13;;;;;;;3.40;1.25;;;;;;;;;;5052036;28;20021;-78
2022/09/18 00:26:39;;;;;;;2.83;1.10;;;;;;;;;;5053145;28;20033;-77
2022/09/18 00:29:05;;;;;;;2.60;0.98;;;;;;;;;;5018470;28;20036;-79
2022/09/18 00:31:33;;;;;;;2.13;1.02;;;;;;;;;;5038363;28;20400;-78
2022/09/18 00:34:01;;;;;;;3.22;1.27;;;;;;;;;;5055578;28;20021;-77
2022/09/18 00:36:28;;;;;;;1.33;0.85;;;;;;;;;;5055753;28;20036;-78
2022/09/18 00:38:54;;;;;;;2.83;1.25;;;;;;;;;;5038866;28;20037;-78
2022/09/18 00:41:28;;;;;;;4.18;2.13;;;;;;;;;;5055574;28;20032;-77
2022/09/18 00:43:55;;;;;;;3.85;1.40;;;;;;;;;;5039199;28;20079;-78
2022/09/18 00:46:28;;;;;;;2.65;1.15;;;;;;;;;;5022203;28;20037;-77
2022/09/18 00:49:03;;;;;;;4.25;1.30;;;;;;;;;;5055330;28;20044;-77
2022/09/18 00:51:32;;;;;;;2.88;1.00;;;;;;;;;;5055107;28;20116;-77
2022/09/18 00:54:30;;;;;;;3.60;1.40;;;;;;;;;;5038320;28;20474;-77
2022/09/18 00:56:59;;;;;;;2.80;1.00;;;;;;;;;;5022844;28;20061;-77
2022/09/18 00:59:28;;;;;;;3.20;1.10;;;;;;;;;;5055158;28;20045;-78
2022/09/18 01:01:55;;;;;;;3.65;1.40;;;;;;;;;;5055917;28;20131;-77
2022/09/18 01:04:59;;;;;;;3.03;1.15;;;;;;;;;;5040226;28;20025;-78
2022/09/18 01:07:40;;;;;;;2.70;1.10;;;;;;;;;;5039152;28;20031;-77
2022/09/18 01:10:21;;;;;;;3.75;1.30;;;;;;;;;;5056177;28;20035;-77
2022/09/18 01:12:55;;;;;;;2.45;1.08;;;;;;;;;;5056157;28;20052;-77
2022/09/18 01:15:33;;;;;;;1.40;1.00;;;;;;;;;;5054880;28;20020;-77
2022/09/18 01:18:10;;;;;;;2.00;0.90;;;;;;;;;;5037896;28;20032;-77
2022/09/18 01:20:51;;;;;;;3.35;1.10;;;;;;;;;;5038063;28;20032;-77
2022/09/18 01:23:53;;;;;;;2.05;1.00;;;;;;;;;;5055715;28;20473;-78
2022/09/18 01:26:28;;;;;;;2.60;1.15;;;;;;;;;;5056378;28;20059;-77
2022/09/18 01:28:56;;;;;;;3.72;0.90;;;;;;;;;;5037845;28;20491;-77
2022/09/18 01:31:28;;;;;;;3.15;1.00;;;;;;;;;;5037681;28;20029;-77
2022/09/18 01:34:03;;;;;;;2.35;0.98;;;;;;;;;;5038106;28;20056;-77
2022/09/18 01:36:32;;;;;;;4.18;1.15;;;;;;;;;;5054640;28;20469;-77
2022/09/18 01:39:06;;;;;;;1.88;1.02;;;;;;;;;;5037705;28;20029;-77
2022/09/18 01:41:33;;;;;;;2.92;1.10;;;;;;;;;;5054048;28;20031;-77
2022/09/18 01:44:09;;;;;;;2.65;1.10;;;;;;;;;;5037670;28;20036;-77
2022/09/18 01:46:36;;;;;;;2.53;0.88;;;;;;;;;;5054353;28;20028;-77
2022/09/18 01:49:05;;;;;;;2.42;1.08;;;;;;;;;;5037777;28;20482;-77
2022/09/18 01:51:35;;;;;;;1.70;0.98;;;;;;;;;;5054040;28;20397;-77
2022/09/18 01:54:07;;;;;;;3.63;0.93;;;;;;;;;;5055415;28;20389;-79
2022/09/18 01:56:36;;;;;;;2.17;1.10;;;;;;;;;;5054179;28;20044;-79
2022/09/18 01:59:15;;;;;;;2.95;1.20;;;;;;;;;;5029432;28;20171;-79
2022/09/18 02:01:42;;;;;;;2.05;1.00;;;;;;;;;;5034257;28;20458;-79
2022/09/18 02:04:12;;;;;;;3.40;1.30;;;;;;;;;;5017420;28;20026;-79
2022/09/18 02:06:47;;;;;;;1.52;0.95;;;;;;;;;;5017613;28;20028;-79
2022/09/18 02:09:12;;;;;;;2.35;1.00;;;;;;;;;;5035427;28;20049;-77
2022/09/18 02:11:43;;;;;;;2.10;1.10;;;;;;;;;;5034986;28;20061;-79
2022/09/18 02:14:17;;;;;;;2.53;1.00;;;;;;;;;;5000731;28;20474;-77
2022/09/18 02:16:59;;;;;;;2.45;1.02;;;;;;;;;;5017238;28;20031;-79
2022/09/18 02:19:28;;;;;;;2.60;1.15;;;;;;;;;;5017077;28;20092;-76
2022/09/18 02:21:55;;;;;;;2.45;1.17;;;;;;;;;;5017292;28;20044;-76
2022/09/18 02:24:22;;;;;;;2.80;1.00;;;;;;;;;;5017104;28;20541;-77
2022/09/18 02:26:48;;;;;;;4.30;1.23;;;;;;;;;;5017281;28;20496;-77
2022/09/18 02:29:16;;;;;;;1.65;0.95;;;;;;;;;;5033724;28;20048;-77
2022/09/18 02:31:41;;;;;;;4.93;1.15;;;;;;;;;;5016843;28;20397;-77
2022/09/18 02:34:08;;;;;;;2.38;0.98;;;;;;;;;;5017032;28;20033;-76
2022/09/18 02:36:50;;;;;;;2.28;0.88;;;;;;;;;;5017016;28;20036;-77
2022/09/18 02:39:30;;;;;;;1.42;0.70;;;;;;;;;;5000679;28;20017;-77
2022/09/18 02:42:24;;;;;;;1.38;0.90;;;;;;;;;;5016861;28;20029;-78
2022/09/18 02:45:00;;;;;;;2.30;0.85;;;;;;;;;;4984472;28;20073;-77
2022/09/18 02:47:58;;;;;;;1.60;0.80;;;;;;;;;;5017447;28;20032;-77
2022/09/18 02:50:57;;;;;;;1.70;0.85;;;;;;;;;;5034712;28;20033;-77
2022/09/18 02:53:41;;;;;;;1.55;0.80;;;;;;;;;;5015715;28;20040;-80
2022/09/18 02:56:44;;;;;;;1.92;0.85;;;;;;;;;;5034519;28;20037;-77
2022/09/18 02:59:28;;;;;;;1.45;0.80;;;;;;;;;;5041442;28;20055;-79
2022/09/18 03:01:54;;;;;;;3.13;1.13;;;;;;;;;;5054158;28;20053;-77
2022/09/18 03:04:22;;;;;;;2.65;0.90;;;;;;;;;;5036214;28;20037;-80
2022/09/18 03:06:49;;;;;;;3.55;0.95;;;;;;;;;;5053173;28;20025;-77
2022/09/18 03:09:15;;;;;;;2.33;0.98;;;;;;;;;;5036977;28;20449;-77
2022/09/18 03:11:40;;;;;;;1.88;0.90;;;;;;;;;;5053085;28;20022;-79
2022/09/18 03:14:06;;;;;;;0.88;0.68;;;;;;;;;;5035928;28;20035;-77
2022/09/18 03:16:31;;;;;;;2.38;0.98;;;;;;;;;;5035791;28;20048;-79
2022/09/18 03:19:00;;;;;;;2.17;1.25;;;;;;;;;;5035786;28;20075;-78
2022/09/18 03:21:26;;;;;;;2.20;0.68;;;;;;;;;;5035662;28;20032;-78
2022/09/18 03:23:51;;;;;;;1.58;0.70;;;;;;;;;;5036336;28;20032;-76
2022/09/18 03:26:17;;;;;;;2.53;1.02;;;;;;;;;;5019251;28;20133;-79
2022/09/18 03:28:43;;;;;;;2.60;1.00;;;;;;;;;;5053656;28;20029;-78
2022/09/18 03:31:09;;;;;;;1.15;0.70;;;;;;;;;;5035442;28;20029;-79
2022/09/18 03:33:35;;;;;;;3.47;0.98;;;;;;;;;;5035847;28;20052;-79
2022/09/18 03:36:00;;;;;;;1.45;0.80;;;;;;;;;;5019154;28;20029;-78
2022/09/18 03:38:26;;;;;;;1.48;0.70;;;;;;;;;;5052129;28;20052;-78
2022/09/18 03:40:51;;;;;;;3.42;1.10;;;;;;;;;;5035336;28;20060;-78
2022/09/18 03:43:17;;;;;;;2.10;0.70;;;;;;;;;;5035323;28;20029;-78
2022/09/18 03:45:42;;;;;;;2.03;0.80;;;;;;;;;;5035322;28;20188;-78
2022/09/18 03:48:07;;;;;;;1.80;0.90;;;;;;;;;;5035948;28;20056;-78
2022/09/18 03:50:33;;;;;;;3.47;1.13;;;;;;;;;;5054697;28;20032;-78
2022/09/18 03:52:58;;;;;;;2.22;1.08;;;;;;;;;;5035264;28;20028;-78
2022/09/18 03:55:23;;;;;;;2.22;1.08;;;;;;;;;;5035351;28;20029;-78
2022/09/18 03:57:49;;;;;;;1.73;0.60;;;;;;;;;;5053350;28;20044;-78
2022/09/18 04:00:15;;;;;;;2.40;1.10;;;;;;;;;;5035537;28;20111;-78
2022/09/18 04:02:41;;;;;;;2.50;1.00;;;;;;;;;;5035106;28;20024;-78
2022/09/18 04:05:07;;;;;;;2.13;1.00;;;;;;;;;;5053397;28;20040;-79
2022/09/18 04:07:32;;;;;;;1.25;0.70;;;;;;;;;;5018769;28;20035;-78
2022/09/18 04:09:57;;;;;;;2.72;0.90;;;;;;;;;;5052953;28;20025;-79
2022/09/18 04:12:23;;;;;;;1.67;0.80;;;;;;;;;;5035096;28;20132;-78
2022/09/18 04:14:48;;;;;;;2.42;0.75;;;;;;;;;;5034965;28;20033;-78
2022/09/18 04:17:14;;;;;;;1.60;0.88;;;;;;;;;;5053002;28;20038;-78
2022/09/18 04:19:40;;;;;;;2.00;0.80;;;;;;;;;;5053227;28;20029;-78
2022/09/18 04:22:05;;;;;;;1.55;0.88;;;;;;;;;;5035083;28;20029;-78
2022/09/18 04:24:31;;;;;;;2.40;0.90;;;;;;;;;;5035105;28;20039;-78
2022/09/18 04:26:56;;;;;;;4.25;1.55;;;;;;;;;;5035115;28;20485;-78
2022/09/18 04:29:21;;;;;;;4.57;1.00;;;;;;;;;;5052774;28;20433;-78
2022/09/18 04:31:47;;;;;;;1.33;0.85;;;;;;;;;;5051744;28;20037;-78
2022/09/18 04:34:12;;;;;;;1.48;0.90;;;;;;;;;;5053463;28;20036;-79
2022/09/18 04:36:37;;;;;;;2.78;0.98;;;;;;;;;;5035107;28;20033;-78
2022/09/18 04:39:03;;;;;;;6.10;1.10;;;;;;;;;;5035151;28;20057;-79
2022/09/18 04:41:29;;;;;;;1.52;0.80;;;;;;;;;;5053533;28;20111;-79
2022/09/18 04:43:54;;;;;;;1.63;0.85;;;;;;;;;;5053035;28;20044;-79
2022/09/18 04:46:20;;;;;;;2.38;0.95;;;;;;;;;;5052989;28;20025;-78
2022/09/18 04:48:47;;;;;;;3.08;0.73;;;;;;;;;;5034963;28;20051;-79
2022/09/18 04:51:12;;;;;;;1.95;0.80;;;;;;;;;;5035111;28;20028;-79
2022/09/18 04:53:39;;;;;;;2.90;0.90;;;;;;;;;;5035211;28;20029;-79
2022/09/18 04:56:04;;;;;;;2.35;1.05;;;;;;;;;;5035271;28;20454;-78
2022/09/18 04:58:30;;;;;;;2.17;1.05;;;;;;;;;;5051765;28;20394;-79
2022/09/18 05:00:55;;;;;;;1.83;0.82;;;;;;;;;;5035832;28;20036;-79
2022/09/18 05:03:21;;;;;;;3.55;1.05;;;;;;;;;;5036942;28;20048;-79
2022/09/18 05:05:47;;;;;;;7.25;1.10;;;;;;;;;;5037983;28;20032;-79
2022/09/18 05:08:12;;;;;;;3.55;0.93;;;;;;;;;;5033763;28;20103;-78
2022/09/18 05:10:38;;;;;;;2.92;1.00;;;;;;;;;;5029339;28;20029;-79
2022/09/18 05:13:04;;;;;;;1.60;0.70;;;;;;;;;;5046272;28;20040;-79
2022/09/18 05:15:30;;;;;;;1.67;0.65;;;;;;;;;;5014243;28;20033;-79
2022/09/18 05:18:03;;;;;;;1.88;0.88;;;;;;;;;;5036883;28;20025;-78
2022/09/18 05:20:29;;;;;;;2.10;0.70;;;;;;;;;;5033936;28;20434;-79
2022/09/18 05:22:55;;;;;;;2.17;1.17;;;;;;;;;;5035244;28;20033;-78
2022/09/18 05:25:23;;;;;;;1.98;0.77;;;;;;;;;;5039949;28;20025;-78
2022/09/18 05:27:57;;;;;;;0.93;0.70;;;;;;;;;;5039625;28;20032;-79
2022/09/18 05:30:23;;;;;;;4.90;0.80;;;;;;;;;;5021550;28;20491;-78
2022/09/18 05:32:55;;;;;;;1.90;0.65;;;;;;;;;;5040585;28;20474;-78
2022/09/18 05:35:22;;;;;;;4.38;0.90;;;;;;;;;;5039708;28;20033;-78
2022/09/18 05:37:50;;;;;;;2.97;1.00;;;;;;;;;;5042416;28;20053;-78
2022/09/18 05:40:16;;;;;;;3.13;0.80;;;;;;;;;;5025216;28;20068;-77
2022/09/18 05:42:47;;;;;;;1.17;0.70;;;;;;;;;;5039954;28;20021;-78
2022/09/18 05:45:14;;;;;;;1.75;0.82;;;;;;;;;;5039605;28;20033;-78
2022/09/18 05:47:40;;;;;;;2.00;0.77;;;;;;;;;;5056134;28;20032;-79
2022/09/18 05:50:07;;;;;;;1.55;0.70;;;;;;;;;;5037937;28;20499;-78
2022/09/18 05:52:32;;;;;;;3.40;0.93;;;;;;;;;;5054930;28;20035;-78
2022/09/18 05:54:57;;;;;;;1.40;0.40;;;;;;;;;;5037612;28;20128;-77
2022/09/18 05:57:25;;;;;;;1.73;0.88;;;;;;;;;;5055314;28;20083;-78
2022/09/18 05:59:51;;;;;;;3.05;0.95;;;;;;;;;;5037692;28;20099;-78
2022/09/18 06:02:16;;;;;;;1.30;0.70;;;;;;;;;;5056166;28;20461;-78
2022/09/18 06:04:42;;;;;;;2.17;0.80;;;;;;;;;;5021690;28;20040;-78
2022/09/18 06:07:07;;;;;;;3.08;0.88;;;;;;;;;;5055315;28;20152;-78
2022/09/18 06:09:33;;;;;;;4.15;1.20;;;;;;;;;;5020258;28;20441;-78
2022/09/18 06:11:58;;;;;;;3.38;1.00;;;;;;;;;;5037202;28;20123;-78
2022/09/18 06:14:24;;;;;;;0.85;0.60;;;;;;;;;;5055210;28;20135;-78
2022/09/18 06:16:49;;;;;;;1.75;0.70;;;;;;;;;;5037266;28;20028;-79
2022/09/18 06:19:15;;;;;;;4.57;0.60;;;;;;;;;;5036855;28;20091;-79
2022/09/18 06:21:40;;;;;;;1.13;0.75;;;;;;;;;;5055247;28;20056;-78
2022/09/18 06:24:06;;;;;;;1.88;0.90;;;;;;;;;;5057434;28;20095;-78
2022/09/18 06:26:33;;;;;;;2.50;0.80;;;;;;;;;;5038831;28;20462;-78
2022/09/18 06:28:58;;;;;;;2.80;0.82;;;;;;;;;;5054503;28;20025;-78
2022/09/18 06:31:24;;;;;;;2.28;0.80;;;;;;;;;;5037411;28;20393;-78
2022/09/18 06:33:49;;;;;;;2.90;0.85;;;;;;;;;;5037568;28;20040;-78
2022/09/18 06:36:15;;;;;;;4.72;0.82;;;;;;;;;;5055237;28;20040;-78
2022/09/18 06:38:40;;;;;;;3.25;0.82;;;;;;;;;;5055506;28;20468;-79
2022/09/18 06:41:07;;;;;;;4.43;0.88;;;;;;;;;;5037538;28;20024;-78
2022/09/18 06:43:33;;;;;;;2.13;0.80;;;;;;;;;;5033082;28;20036;-77
2022/09/18 06:45:59;;;;;;;2.80;0.77;;;;;;;;;;5035708;28;20036;-79
2022/09/18 06:48:24;;;;;;;2.53;0.70;;;;;;;;;;5020010;28;20327;-78
2022/09/18 06:50:54;;;;;;;2.75;1.00;;;;;;;;;;5049403;28;20043;-77
2022/09/18 06:53:20;;;;;;;3.65;0.80;;;;;;;;;;5039035;28;20031;-79
2022/09/18 06:55:47;;;;;;;2.28;0.80;;;;;;;;;;5038545;28;20036;-78
2022/09/18 06:58:14;;;;;;;3.53;1.02;;;;;;;;;;5053586;28;20389;-79
2022/09/18 07:00:40;;;;;;;1.30;0.90;;;;;;;;;;5031514;28;20028;-80
2022/09/18 07:03:05;;;;;;;1.98;0.90;;;;;;;;;;5049715;28;20303;-79
2022/09/18 07:05:31;;;;;;;7.63;0.80;;;;;;;;;;5031368;28;20033;-80
2022/09/18 07:07:57;;;;;;;1.48;0.80;;;;;;;;;;5014453;28;20028;-78
2022/09/18 07:10:23;;;;;;;1.67;0.73;;;;;;;;;;5031001;28;20028;-79
2022/09/18 07:12:49;;;;;;;4.47;0.82;;;;;;;;;;5030270;28;20032;-80
2022/09/18 07:15:15;;;;;;;3.22;1.10;;;;;;;;;;5030830;28;20043;-79
2022/09/18 07:17:41;;;;;;;2.78;0.73;;;;;;;;;;5014259;28;20033;-79
2022/09/18 07:20:08;;;;;;;2.40;0.73;;;;;;;;;;5031147;28;20031;-79
2022/09/18 07:22:34;;;;;;;1.08;0.70;;;;;;;;;;5030683;28;20214;-77
2022/09/18 07:24:59;;;;;;;0.68;0.65;;;;;;;;;;5048300;28;20163;-79
2022/09/18 07:27:24;;;;;;;1.92;0.88;;;;;;;;;;5048418;28;20028;-79
2022/09/18 07:29:50;;;;;;;2.63;1.20;;;;;;;;;;5030176;28;20104;-79
2022/09/18 07:32:15;;;;;;;3.78;0.90;;;;;;;;;;5013708;28;20211;-79
2022/09/18 07:34:41;;;;;;;1.80;0.90;;;;;;;;;;5048480;28;20107;-79
2022/09/18 07:37:07;;;;;;;1.50;0.80;;;;;;;;;;5013840;28;20365;-79
2022/09/18 07:39:32;;;;;;;2.60;1.15;;;;;;;;;;5036120;28;20037;-78
2022/09/18 07:41:58;;;;;;;2.20;0.70;;;;;;;;;;5035883;28;20150;-79
2022/09/18 07:44:24;;;;;;;2.10;0.90;;;;;;;;;;5037038;28;20082;-78
2022/09/18 07:46:54;;;;;;;4.35;1.00;;;;;;;;;;5018553;28;20029;-77
2022/09/18 07:49:19;;;;;;;2.55;0.90;;;;;;;;;;5037191;28;20028;-78
2022/09/18 07:51:45;;;;;;;0.55;0.50;;;;;;;;;;5036890;28;20056;-77
2022/09/18 07:54:11;;;;;;;4.07;0.77;;;;;;;;;;5052940;28;20400;-76
2022/09/18 07:56:36;;;;;;;1.90;0.85;;;;;;;;;;5035368;28;20059;-77
2022/09/18 07:59:02;;;;;;;3.00;0.70;;;;;;;;;;5051627;28;20049;-76
2022/09/18 08:01:27;;;;;;;1.42;0.98;;;;;;;;;;5035681;28;20029;-76
2022/09/18 08:03:52;;;;;;;1.75;0.75;;;;;;;;;;5035295;28;20060;-77
2022/09/18 08:06:18;;;;;;;6.55;0.82;;;;;;;;;;5053356;28;20033;-76
2022/09/18 08:08:43;;;;;;;1.15;0.70;;;;;;;;;;5052587;28;20029;-77
2022/09/18 08:11:09;;;;;;;2.33;0.90;;;;;;;;;;5052599;28;20454;-77
2022/09/18 08:13:34;;;;;;;6.63;0.90;;;;;;;;;;5018060;28;20037;-77
2022/09/18 08:16:02;;;;;;;1.38;0.75;;;;;;;;;;5051985;28;20033;-77
2022/09/18 08:18:27;;;;;;;0.77;0.50;;;;;;;;;;5052419;28;20035;-76
2022/09/18 08:20:56;;;;;;;4.18;0.88;;;;;;;;;;5034297;28;20029;-77
2022/09/18 08:23:21;;;;;;;3.17;0.50;;;;;;;;;;5034456;28;20370;-76
2022/09/18 08:25:47;;;;;;;1.23;0.73;;;;;;;;;;5034336;28;20242;-77
2022/09/18 08:28:13;;;;;;;2.08;0.80;;;;;;;;;;5017882;28;20347;-77
2022/09/18 08:30:38;;;;;;;2.47;0.88;;;;;;;;;;5034342;28;20032;-77
2022/09/18 08:33:06;;;;;;;3.97;1.00;;;;;;;;;;5050213;28;20119;-77
2022/09/18 08:35:32;;;;;;;5.00;0.90;;;;;;;;;;5051544;28;20485;-77
2022/09/18 08:37:58;;;;;;;4.78;0.80;;;;;;;;;;5017741;28;20103;-76
2022/09/18 08:40:35;;;;;;;4.47;0.93;;;;;;;;;;5034382;28;20416;-76
2022/09/18 08:43:08;;;;;;;5.55;1.30;;;;;;;;;;5051811;28;20466;-76
2022/09/18 08:45:43;;;;;;;3.87;1.37;;;;;;;;;;5050024;28;20036;-76
2022/09/18 08:48:36;;;;;;;6.30;1.60;;;;;;;;;;5033554;28;20111;-76
2022/09/18 08:51:05;;;;;;;9.80;1.58;;;;;;;;;;5018359;28;20115;-78
2022/09/18 08:53:35;;;;;;;9.13;2.15;;;;;;;;;;5038223;28;20083;-77
2022/09/18 08:56:03;;;;;;;6.07;2.33;;;;;;;;;;5038268;28;20029;-77
2022/09/18 08:58:41;;;;;;;8.63;2.17;;;;;;;;;;5055775;28;20037;-77
2022/09/18 09:01:08;;;;;;;6.68;2.20;;;;;;;;;;5037929;28;20052;-76
2022/09/18 09:03:52;;;;;;;3.95;1.92;;;;;;;;;;5054609;28;20143;-76
2022/09/18 09:06:27;;;;;;;;;;;;;;;;;;5054963;28;20055;-78
2022/09/18 09:09:17;;;;;;;5.43;1.83;;;;;;;;;;5054917;28;19992;-77
2022/09/18 09:11:52;;;;;;;8.55;2.00;;;;;;;;;;5021419;28;20044;-77
2022/09/18 09:14:24;;;;;;;9.20;1.90;;;;;;;;;;5037819;28;20111;-76
2022/09/18 09:16:55;;;;;;;8.23;2.08;;;;;;;;;;5054169;28;20083;-77
2022/09/18 09:19:42;;;;;;;10.18;1.70;;;;;;;;;;5054317;28;20032;-77
2022/09/18 09:22:18;;;;;;;8.32;2.15;;;;;;;;;;5054181;28;20050;-77
2022/09/18 09:25:09;;;;;;;8.10;2.33;;;;;;;;;;5021138;28;20063;-77
2022/09/18 09:27:39;;;;;;;6.95;1.88;;;;;;;;;;5037459;28;20055;-77
2022/09/18 09:30:20;;;;;;;6.65;2.03;;;;;;;;;;5054035;28;20044;-77
2022/09/18 09:33:23;;;;;;;3.55;1.20;;;;;;;;;;5054015;28;20060;-78
2022/09/18 09:35:53;;;;;;;3.90;1.70;;;;;;;;;;5055167;28;20033;-76
2022/09/18 09:38:28;;;;;;;4.55;1.55;;;;;;;;;;5037245;28;20037;-77
2022/09/18 09:40:53;;;;;;;11.45;1.70;;;;;;;;;;5055184;28;20036;-77
2022/09/18 09:43:26;;;;;;;4.30;1.60;;;;;;;;;;5021072;28;20033;-77
2022/09/18 09:45:53;;;;;;;2.95;1.20;;;;;;;;;;5054766;28;20024;-77
2022/09/18 09:48:38;;;;;;;5.13;1.73;;;;;;;;;;5037977;28;20037;-76
2022/09/18 09:51:09;;;;;;;4.43;1.48;;;;;;;;;;5038315;28;20035;-76
2022/09/18 09:53:35;;;;;;;13.95;1.40;;;;;;;;;;5055368;28;20024;-76
2022/09/18 09:56:27;;;;;;;5.05;1.65;;;;;;;;;;5053843;28;20491;-77
2022/09/18 09:59:04;;;;;;;4.60;1.30;;;;;;;;;;5020397;28;20045;-77
2022/09/18 10:01:46;;;;;;;5.50;1.55;;;;;;;;;;5054860;28;20492;-77
2022/09/18 10:04:40;;;;;;;3.22;1.10;;;;;;;;;;5052335;28;20338;-77
2022/09/18 10:07:09;;;;;;;3.13;1.02;;;;;;;;;;5032556;28;20384;-77
2022/09/18 10:09:56;;;;;;;2.38;1.30;;;;;;;;;;5050082;28;20106;-77
2022/09/18 10:12:43;;;;;;;2.33;1.10;;;;;;;;;;5015391;28;20032;-77
2022/09/18 10:15:25;;;;;;;2.78;1.17;;;;;;;;;;5050030;28;20035;-77
2022/09/18 10:17:55;;;;;;;4.75;2.00;;;;;;;;;;5049013;28;20025;-76
2022/09/18 10:20:26;;;;;;;6.70;2.75;;;;;;;;;;5031866;28;20040;-77
2022/09/18 10:22:51;;;;;;;4.45;1.70;;;;;;;;;;5048582;28;20025;-76
2022/09/18 10:25:40;;;;;;;2.95;1.63;;;;;;;;;;5049434;28;20033;-77
2022/09/18 10:28:11;;;;;;;6.20;2.50;;;;;;;;;;5027560;28;20045;-79
2022/09/18 10:30:52;;;;;;;5.18;1.70;;;;;;;;;;5050871;28;20069;-76
2022/09/18 10:33:39;;;;;;;5.18;1.70;;;;;;;;;;5037304;28;20393;-77
2022/09/18 10:36:29;;;;;;;3.38;1.75;;;;;;;;;;5037412;28;20139;-77
2022/09/18 10:38:57;;;;;;;4.25;1.50;;;;;;;;;;5054935;28;20028;-78
2022/09/18 10:41:33;;;;;;;4.90;1.70;;;;;;;;;;5036754;28;20029;-79
2022/09/18 10:44:18;;;;;;;3.88;1.40;;;;;;;;;;5037318;28;20061;-78
2022/09/18 10:47:18;;;;;;;4.72;1.55;;;;;;;;;;5054085;28;20456;-77
2022/09/18 10:50:01;;;;;;;3.78;1.40;;;;;;;;;;5036555;28;20075;-78
2022/09/18 10:52:35;;;;;;;5.47;1.88;;;;;;;;;;5053549;28;20029;-77
2022/09/18 10:55:04;;;;;;;3.60;1.33;;;;;;;;;;5036056;28;20072;-77
2022/09/18 10:57:31;;;;;;;7.38;1.38;;;;;;;;;;5054782;28;20029;-76
2022/09/18 10:59:56;;;;;;;3.47;1.15;;;;;;;;;;5052800;28;20045;-77
2022/09/18 11:02:25;;;;;;;4.13;1.45;;;;;;;;;;5053109;28;20036;-77
2022/09/18 11:04:52;;;;;;;4.45;1.38;;;;;;;;;;5035854;28;20055;-76
2022/09/18 11:07:18;;;;;;;6.80;1.33;;;;;;;;;;5019033;28;20500;-76
2022/09/18 11:09:45;;;;;;;2.95;1.02;;;;;;;;;;5053678;28;20029;-77
2022/09/18 11:12:16;;;;;;;2.90;1.50;;;;;;;;;;5052192;28;20033;-77
2022/09/18 11:14:50;;;;;;;5.50;1.30;;;;;;;;;;5051808;28;20029;-77
2022/09/18 11:17:26;;;;;;;3.75;1.23;;;;;;;;;;5052759;28;20040;-77
2022/09/18 11:19:54;;;;;;;2.65;1.30;;;;;;;;;;5054230;28;20381;-76
2022/09/18 11:22:41;;;;;;;4.35;1.42;;;;;;;;;;5036222;28;20013;-77
2022/09/18 11:25:13;;;;;;;6.28;1.33;;;;;;;;;;5035840;28;20036;-77
2022/09/18 11:27:50;;;;;;;6.28;1.85;;;;;;;;;;5054069;28;20020;-77
2022/09/18 11:30:34;;;;;;;4.40;1.40;;;;;;;;;;5052297;28;20024;-77
2022/09/18 11:33:16;;;;;;;12.13;2.00;;;;;;;;;;5053392;28;20039;-77
2022/09/18 11:35:48;;;;;;;3.58;1.33;;;;;;;;;;5053409;28;20381;-77
2022/09/18 11:38:18;;;;;;;6.90;1.42;;;;;;;;;;5035089;28;20028;-77
2022/09/18 11:40:55;;;;;;;3.42;1.27;;;;;;;;;;5052203;28;20033;-76
2022/09/18 11:43:22;;;;;;;2.65;1.40;;;;;;;;;;5052004;28;20026;-77
2022/09/18 11:46:00;;;;;;;7.10;1.27;;;;;;;;;;5051508;28;20029;-77
2022/09/18 11:48:50;;;;;;;4.47;1.30;;;;;;;;;;5052058;28;20048;-76
2022/09/18 11:51:25;;;;;;;2.60;1.30;;;;;;;;;;5052646;28;20111;-76
2022/09/18 11:53:56;;;;;;;5.72;1.27;;;;;;;;;;5053113;28;20045;-77
2022/09/18 11:56:30;;;;;;;4.18;1.30;;;;;;;;;;5019606;28;20033;-76
2022/09/18 11:59:18;;;;;;;8.05;1.25;;;;;;;;;;5048739;28;20114;-76
2022/09/18 12:01:57;;;;;;;3.13;1.10;;;;;;;;;;5033496;28;20032;-77
2022/09/18 12:04:37;;;;;;;4.55;1.58;;;;;;;;;;5033612;28;20021;-77
2022/09/18 12:07:28;;;;;;;3.90;1.25;;;;;;;;;;5049157;28;20057;-77
2022/09/18 12:09:59;;;;;;;2.28;1.20;;;;;;;;;;5032221;28;20026;-76
2022/09/18 12:12:31;;;;;;;3.13;1.10;;;;;;;;;;5015516;28;20018;-77
2022/09/18 12:15:01;;;;;;;3.92;1.30;;;;;;;;;;5048659;28;20512;-76
2022/09/18 12:17:28;;;;;;;4.63;1.50;;;;;;;;;;5033478;28;20033;-77
2022/09/18 12:19:57;;;;;;;4.90;1.20;;;;;;;;;;5048858;28;20029;-76
2022/09/18 12:22:27;;;;;;;4.88;1.75;;;;;;;;;;5048754;28;20109;-77
2022/09/18 12:24:52;;;;;;;8.93;1.50;;;;;;;;;;5048575;28;20036;-76
2022/09/18 12:27:40;;;;;;;4.85;1.13;;;;;;;;;;5051981;28;20029;-77
2022/09/18 12:30:19;;;;;;;4.43;1.20;;;;;;;;;;5036130;28;20033;-78
2022/09/18 12:32:56;;;;;;;4.05;1.10;;;;;;;;;;5019664;28;20033;-77
2022/09/18 12:35:29;;;;;;;2.13;1.05;;;;;;;;;;5037614;28;20032;-77
2022/09/18 12:38:06;;;;;;;4.50;1.10;;;;;;;;;;5037299;28;20029;-76
2022/09/18 12:41:09;;;;;;;1.80;0.90;;;;;;;;;;5037075;28;20029;-77
2022/09/18 12:43:53;;;;;;;2.53;1.30;;;;;;;;;;5037884;28;20037;-77
2022/09/18 12:46:41;;;;;;;3.92;1.10;;;;;;;;;;5052728;28;20108;-76
2022/09/18 12:49:24;;;;;;;3.13;1.20;;;;;;;;;;5052695;28;20177;-76
2022/09/18 12:52:21;;;;;;;3.25;1.30;;;;;;;;;;5039363;28;20034;-77
2022/09/18 12:55:03;;;;;;;5.00;1.15;;;;;;;;;;5039976;28;20104;-77
2022/09/18 12:57:58;;;;;;;2.53;1.33;;;;;;;;;;5052665;28;20048;-76
2022/09/18 13:00:23;;;;;;;3.55;1.00;;;;;;;;;;5017694;28;20073;-77
2022/09/18 13:03:24;;;;;;;4.72;1.45;;;;;;;;;;5036624;28;20068;-77
2022/09/18 13:05:54;;;;;;;3.65;1.02;;;;;;;;;;5036305;28;20041;-76
2022/09/18 13:08:33;;;;;;;5.30;1.50;;;;;;;;;;5052078;28;20105;-78
2022/09/18 13:11:02;;;;;;;3.72;1.33;;;;;;;;;;5051841;28;20059;-77
2022/09/18 13:13:37;;;;;;;2.35;0.90;;;;;;;;;;5051797;28;20026;-77
2022/09/18 13:16:13;;;;;;;6.72;1.48;;;;;;;;;;5036681;28;20026;-76
2022/09/18 13:19:03;;;;;;;2.42;1.10;;;;;;;;;;5036667;28;20021;-77
2022/09/18 13:21:32;;;;;;;4.00;1.20;;;;;;;;;;5036837;28;20036;-75
2022/09/18 13:23:58;;;;;;;4.22;1.23;;;;;;;;;;5034834;28;20087;-77
2022/09/18 13:26:26;;;;;;;2.25;1.10;;;;;;;;;;5035447;28;20482;-77
2022/09/18 13:28:51;;;;;;;2.17;1.10;;;;;;;;;;5052052;28;20071;-77
2022/09/18 13:31:28;;;;;;;2.33;1.15;;;;;;;;;;5050928;28;20397;-77
2022/09/18 13:33:55;;;;;;;1.92;1.13;;;;;;;;;;5035483;28;20022;-77
2022/09/18 13:36:37;;;;;;;2.15;1.25;;;;;;;;;;5050336;28;20057;-77
2022/09/18 13:39:15;;;;;;;2.58;1.08;;;;;;;;;;5051594;28;20466;-77
2022/09/18 13:41:47;;;;;;;2.85;1.10;;;;;;;;;;5051706;28;20021;-77
2022/09/18 13:44:21;;;;;;;3.95;1.17;;;;;;;;;;5015009;28;20192;-76
2022/09/18 13:46:48;;;;;;;1.85;0.80;;;;;;;;;;5030181;28;20025;-76
2022/09/18 13:49:17;;;;;;;2.13;0.90;;;;;;;;;;5015261;28;20036;-76
2022/09/18 13:51:43;;;;;;;2.40;0.85;;;;;;;;;;5032740;28;20220;-76
2022/09/18 13:54:14;;;;;;;4.80;1.27;;;;;;;;;;5047387;28;20096;-76
2022/09/18 13:57:13;;;;;;;2.20;0.88;;;;;;;;;;5031340;28;20083;-76
2022/09/18 14:00:34;;;;;;;12.65;0.88;;;;;;;;;;5043729;28;20072;-76
2022/09/18 14:03:06;;;;;;;2.88;0.90;;;;;;;;;;5034475;28;20246;-76
2022/09/18 14:05:37;;;;;;;1.40;0.70;;;;;;;;;;5056153;28;20461;-76
2022/09/18 14:08:21;;;;;;;1.58;0.93;;;;;;;;;;5039046;28;20025;-76
2022/09/18 14:10:46;;;;;;;4.75;1.17;;;;;;;;;;5057629;28;20029;-76
2022/09/18 14:13:18;;;;;;;2.92;0.90;;;;;;;;;;5057032;28;20028;-76
2022/09/18 14:15:50;;;;;;;0.65;0.60;;;;;;;;;;5056448;28;20021;-76
2022/09/18 14:18:22;;;;;;;1.88;0.57;;;;;;;;;;5038326;28;20511;-76
2022/09/18 14:20:50;;;;;;;0.57;0.52;;;;;;;;;;5055548;28;20025;-76
2022/09/18 14:23:39;;;;;;;1.85;0.77;;;;;;;;;;5054561;28;20535;-76
2022/09/18 14:26:28;;;;;;;3.55;0.98;;;;;;;;;;5056499;28;20033;-76
2022/09/18 14:29:18;;;;;;;1.80;1.02;;;;;;;;;;5051371;28;20109;-75
2022/09/18 14:31:43;;;;;;;1.13;0.65;;;;;;;;;;5050826;28;20176;-78
2022/09/18 14:34:26;;;;;;;1.88;0.68;;;;;;;;;;5050781;28;20028;-77
2022/09/18 14:37:00;;;;;;;1.20;0.52;;;;;;;;;;5052237;28;20032;-78
2022/09/18 14:39:29;;;;;;;2.72;1.20;;;;;;;;;;5033347;28;20115;-77
2022/09/18 14:42:15;;;;;;;2.58;0.93;;;;;;;;;;5054216;28;20021;-77
2022/09/18 14:44:47;;;;;;;2.13;0.82;;;;;;;;;;5038018;28;20458;-79
2022/09/18 14:47:19;;;;;;;1.27;0.90;;;;;;;;;;5054729;28;20534;-76
2022/09/18 14:49:45;;;;;;;0.90;0.60;;;;;;;;;;5054869;28;20029;-78
2022/09/18 14:52:25;;;;;;;0.75;0.65;;;;;;;;;;5038645;28;20093;-76
2022/09/18 14:54:52;;;;;;;1.33;0.93;;;;;;;;;;5056843;28;20196;-76
2022/09/18 14:57:28;;;;;;;2.08;1.13;;;;;;;;;;5055271;28;20032;-75
2022/09/18 14:59:55;;;;;;;2.53;1.17;;;;;;;;;;5054093;28;20139;-77
2022/09/18 15:02:30;;;;;;;3.50;0.98;;;;;;;;;;5054317;28;20033;-80
2022/09/18 15:04:55;;;;;;;2.45;1.05;;;;;;;;;;5037184;28;20086;-76
2022/09/18 15:07:22;;;;;;;1.88;1.23;;;;;;;;;;5053213;28;20029;-77
2022/09/18 15:09:49;;;;;;;1.40;0.95;;;;;;;;;;5054413;28;20025;-80
2022/09/18 15:12:18;;;;;;;2.28;1.05;;;;;;;;;;5037660;28;20052;-78